Time;durP1;ratioP1;P1;durP2;ratioP2;P2;SDS_P1;SDS_P2;PMS_P1;PMS_P2;Temp;Humidity;BMP_temperature;BMP_pressure;BME280_temperature;BME280_humidity;BME280_pressure;Samples;Min_cycle;Max_cycle;Signal;HPM_P1;HPM_P2
2023/05/31 00:00:21;;;;;;;8.57;4.38;;;12.90;99.90;;;;;;5133282;27;20027;-86
2023/05/31 00:02:46;;;;;;;8.07;4.38;;;13.00;99.90;;;;;;5134119;27;20169;-87
2023/05/31 00:05:12;;;;;;;4.88;4.45;;;12.90;99.90;;;;;;5134848;27;20023;-86
2023/05/31 00:07:37;;;;;;;4.72;3.53;;;12.90;99.90;;;;;;5133823;27;20030;-86
2023/05/31 00:10:03;;;;;;;4.63;4.07;;;12.90;99.90;;;;;;5134446;27;20023;-85
2023/05/31 00:12:29;;;;;;;6.00;4.50;;;12.90;99.90;;;;;;5133853;27;20038;-86
2023/05/31 00:14:54;;;;;;;4.75;4.20;;;13.00;99.90;;;;;;5133315;27;20098;-85
2023/05/31 00:17:21;;;;;;;4.97;4.50;;;13.00;99.90;;;;;;5138357;27;20027;-85
2023/05/31 00:19:47;;;;;;;6.50;4.75;;;12.90;99.90;;;;;;5134002;27;20464;-85
2023/05/31 00:22:15;;;;;;;5.70;4.85;;;12.90;99.90;;;;;;5133402;27;20118;-85
2023/05/31 00:24:40;;;;;;;4.40;4.00;;;13.30;99.90;;;;;;5134183;27;20036;-85
2023/05/31 00:27:06;;;;;;;8.90;4.28;;;13.00;99.90;;;;;;5133919;27;20019;-86
2023/05/31 00:29:32;;;;;;;5.43;4.32;;;12.90;99.90;;;;;;5133586;27;20024;-85
2023/05/31 00:31:57;;;;;;;8.10;4.50;;;13.60;99.90;;;;;;5134180;27;20026;-85
2023/05/31 00:34:23;;;;;;;5.95;4.50;;;12.80;99.90;;;;;;5133462;27;20098;-85
2023/05/31 00:36:48;;;;;;;4.97;4.47;;;12.80;99.90;;;;;;5133668;27;20516;-85
2023/05/31 00:39:14;;;;;;;7.22;4.40;;;12.80;99.90;;;;;;5133917;27;20022;-85
2023/05/31 00:41:39;;;;;;;5.20;4.57;;;12.80;99.90;;;;;;5133250;27;20091;-85
2023/05/31 00:44:05;;;;;;;6.68;4.75;;;12.80;99.90;;;;;;5133893;27;20455;-85
2023/05/31 00:46:37;;;;;;;6.80;4.53;;;12.70;99.90;;;;;;5133979;27;20060;-86
2023/05/31 00:49:03;;;;;;;11.15;4.40;;;12.70;99.90;;;;;;5133403;27;20035;-85
2023/05/31 00:51:31;;;;;;;5.80;4.78;;;12.80;99.90;;;;;;5133796;27;20023;-85
2023/05/31 00:53:58;;;;;;;5.70;4.75;;;12.80;99.90;;;;;;5134028;27;20027;-86
2023/05/31 00:56:24;;;;;;;5.25;4.53;;;12.80;99.90;;;;;;5133301;27;20019;-85
2023/05/31 00:58:52;;;;;;;11.05;5.05;;;12.80;99.90;;;;;;5133731;27;20031;-86
2023/05/31 01:01:19;;;;;;;6.15;4.78;;;12.70;99.90;;;;;;5133626;27;20019;-85
2023/05/31 01:03:46;;;;;;;7.38;5.22;;;12.80;99.90;;;;;;5132758;27;20050;-85
2023/05/31 01:06:11;;;;;;;8.65;5.45;;;12.90;99.90;;;;;;5132594;27;20102;-85
2023/05/31 01:08:38;;;;;;;5.65;4.43;;;12.80;99.90;;;;;;5132285;27;20126;-85
2023/05/31 01:11:14;;;;;;;6.82;5.53;;;13.10;99.90;;;;;;5132147;27;20126;-84
2023/05/31 01:13:54;;;;;;;6.97;5.55;;;12.80;99.90;;;;;;5132647;27;20027;-85
2023/05/31 01:16:30;;;;;;;5.85;5.15;;;12.70;99.90;;;;;;5132840;27;20027;-86
2023/05/31 01:19:02;;;;;;;7.28;5.03;;;12.70;99.90;;;;;;5132891;27;20027;-85
2023/05/31 01:21:39;;;;;;;5.70;4.80;;;12.70;99.90;;;;;;5114277;28;20054;-86
2023/05/31 01:24:19;;;;;;;8.43;5.18;;;12.70;99.90;;;;;;5111895;28;20128;-85
2023/05/31 01:26:49;;;;;;;8.88;5.10;;;12.60;99.90;;;;;;5112037;28;20031;-84
2023/05/31 01:29:19;;;;;;;8.18;5.80;;;12.70;99.90;;;;;;5111337;28;20038;-85
2023/05/31 01:31:46;;;;;;;8.57;5.03;;;12.70;99.90;;;;;;5111067;28;20039;-85
2023/05/31 01:34:13;;;;;;;7.05;4.85;;;12.60;99.90;;;;;;5111718;28;20015;-84
2023/05/31 01:36:39;;;;;;;7.13;5.07;;;12.50;99.90;;;;;;5112182;28;20032;-85
2023/05/31 01:39:05;;;;;;;9.70;5.47;;;12.70;99.90;;;;;;5111857;28;20088;-85
2023/05/31 01:41:39;;;;;;;6.45;5.15;;;12.50;99.90;;;;;;5113286;28;20110;-85
2023/05/31 01:44:05;;;;;;;7.35;4.75;;;12.50;99.90;;;;;;5113027;28;20028;-85
2023/05/31 01:46:31;;;;;;;8.55;4.85;;;12.40;99.90;;;;;;5111674;28;20024;-85
2023/05/31 01:48:58;;;;;;;6.20;5.30;;;12.30;99.90;;;;;;5112203;28;20205;-85
2023/05/31 01:51:26;;;;;;;6.45;5.28;;;12.30;99.90;;;;;;5112154;28;20106;-86
2023/05/31 01:53:52;;;;;;;7.05;5.55;;;12.30;99.90;;;;;;5111597;28;20115;-85
2023/05/31 01:56:20;;;;;;;8.60;5.70;;;12.30;99.90;;;;;;5112347;28;20489;-85
2023/05/31 01:58:48;;;;;;;10.07;5.80;;;12.30;99.90;;;;;;5111493;28;20491;-85
2023/05/31 02:01:16;;;;;;;6.85;5.75;;;12.30;99.90;;;;;;5112451;28;20027;-86
2023/05/31 02:03:42;;;;;;;9.75;5.70;;;12.20;99.90;;;;;;5111983;28;20495;-85
2023/05/31 02:06:08;;;;;;;14.30;5.85;;;12.30;99.90;;;;;;5111766;28;20078;-86
2023/05/31 02:08:33;;;;;;;10.10;5.80;;;12.30;99.90;;;;;;5111819;28;20034;-86
2023/05/31 02:10:59;;;;;;;7.80;5.22;;;12.30;99.90;;;;;;5110611;28;20479;-86
2023/05/31 02:13:27;;;;;;;10.10;5.82;;;12.30;99.90;;;;;;5112139;28;20031;-85
2023/05/31 02:15:54;;;;;;;6.82;5.00;;;12.20;99.90;;;;;;5111630;28;20032;-86
2023/05/31 02:18:21;;;;;;;7.53;5.20;;;12.20;99.90;;;;;;5112433;28;20519;-86
2023/05/31 02:20:47;;;;;;;8.68;6.22;;;12.10;99.90;;;;;;5124458;28;20495;-86
2023/05/31 02:23:13;;;;;;;8.10;5.25;;;12.10;99.90;;;;;;5134653;27;20122;-86
2023/05/31 02:25:38;;;;;;;7.10;5.22;;;12.10;99.90;;;;;;5136104;27;20470;-86
2023/05/31 02:28:04;;;;;;;11.40;6.43;;;12.30;99.90;;;;;;5135695;27;20019;-86
2023/05/31 02:30:31;;;;;;;6.28;4.95;;;12.10;99.90;;;;;;5136472;27;20084;-85
2023/05/31 02:32:57;;;;;;;10.10;5.47;;;12.00;99.90;;;;;;5135804;27;20026;-86
2023/05/31 02:35:22;;;;;;;8.23;5.13;;;12.00;99.90;;;;;;5135679;27;20023;-85
2023/05/31 02:37:48;;;;;;;8.52;5.30;;;12.00;99.90;;;;;;5136903;27;20019;-86
2023/05/31 02:40:14;;;;;;;7.28;5.68;;;12.00;99.90;;;;;;5137033;27;20027;-86
2023/05/31 02:42:41;;;;;;;7.30;5.70;;;11.70;99.90;;;;;;5135420;27;20043;-86
2023/05/31 02:45:08;;;;;;;9.70;5.35;;;12.00;99.90;;;;;;5136524;27;20024;-86
2023/05/31 02:47:35;;;;;;;7.90;5.38;;;12.10;99.90;;;;;;5135689;27;20144;-87
2023/05/31 02:50:01;;;;;;;10.75;6.18;;;12.10;99.90;;;;;;5135771;27;20030;-86
2023/05/31 02:52:26;;;;;;;10.07;5.63;;;12.10;99.90;;;;;;5136165;27;20031;-86
2023/05/31 02:54:52;;;;;;;11.10;6.32;;;12.10;99.90;;;;;;5136157;27;20471;-86
2023/05/31 02:57:18;;;;;;;12.02;6.70;;;12.00;99.90;;;;;;5135351;27;20034;-86
2023/05/31 02:59:45;;;;;;;10.75;6.18;;;12.10;99.90;;;;;;5135968;27;20020;-86
2023/05/31 03:02:11;;;;;;;13.98;6.05;;;12.10;99.90;;;;;;5121972;27;20035;-87
2023/05/31 03:04:36;;;;;;;8.40;5.95;;;12.10;99.90;;;;;;5118510;28;20016;-85
2023/05/31 03:07:02;;;;;;;7.25;5.85;;;12.00;99.90;;;;;;5115132;28;20402;-85
2023/05/31 03:09:28;;;;;;;7.82;6.10;;;12.00;99.90;;;;;;5114085;28;20020;-87
2023/05/31 03:11:54;;;;;;;6.65;5.00;;;11.90;99.90;;;;;;5114847;28;20020;-87
2023/05/31 03:14:19;;;;;;;8.48;6.00;;;11.90;99.90;;;;;;5114975;28;20032;-87
2023/05/31 03:16:45;;;;;;;9.68;6.55;;;11.90;99.90;;;;;;5113943;28;20367;-87
2023/05/31 03:19:12;;;;;;;8.02;5.65;;;11.90;99.90;;;;;;5114468;28;20030;-87
2023/05/31 03:21:38;;;;;;;14.75;6.68;;;11.90;99.90;;;;;;5134634;27;20077;-86
2023/05/31 03:24:04;;;;;;;9.63;6.05;;;11.90;99.90;;;;;;5135187;27;20481;-86
2023/05/31 03:26:29;;;;;;;9.75;7.07;;;11.90;99.90;;;;;;5135168;27;20019;-86
2023/05/31 03:28:55;;;;;;;7.43;6.00;;;11.90;99.90;;;;;;5135185;27;20027;-86
2023/05/31 03:31:20;;;;;;;8.65;5.70;;;11.80;99.90;;;;;;5134607;27;20023;-86
2023/05/31 03:33:46;;;;;;;10.43;6.15;;;11.80;99.90;;;;;;5134053;27;20382;-87
2023/05/31 03:36:11;;;;;;;8.82;5.85;;;11.70;99.90;;;;;;5135225;27;20084;-86
2023/05/31 03:38:37;;;;;;;10.27;6.18;;;11.70;99.90;;;;;;5134589;27;20016;-87
2023/05/31 03:41:03;;;;;;;8.20;6.20;;;11.70;99.90;;;;;;5135546;27;20042;-86
2023/05/31 03:43:28;;;;;;;9.63;6.22;;;11.70;99.90;;;;;;5134379;27;20039;-86
2023/05/31 03:45:54;;;;;;;10.05;6.57;;;11.70;99.90;;;;;;5133867;27;20015;-86
2023/05/31 03:48:19;;;;;;;8.98;5.97;;;11.70;99.90;;;;;;5134509;27;20031;-86
2023/05/31 03:50:45;;;;;;;9.40;6.38;;;11.60;99.90;;;;;;5134605;27;20015;-87
2023/05/31 03:53:10;;;;;;;7.85;6.18;;;11.60;99.90;;;;;;5134802;27;20414;-86
2023/05/31 03:55:36;;;;;;;8.35;6.00;;;11.60;99.90;;;;;;5134873;27;20497;-86
2023/05/31 03:58:02;;;;;;;6.80;5.63;;;12.10;99.90;;;;;;5134735;27;20028;-86
2023/05/31 04:00:28;;;;;;;5.88;5.25;;;11.60;99.90;;;;;;5134304;27;20356;-87
2023/05/31 04:02:54;;;;;;;9.95;5.85;;;11.60;99.90;;;;;;5134579;27;20038;-86
2023/05/31 04:05:20;;;;;;;6.85;5.25;;;11.60;99.90;;;;;;5133850;27;20434;-85
2023/05/31 04:07:45;;;;;;;10.18;6.47;;;11.70;99.90;;;;;;5134732;27;20025;-86
2023/05/31 04:10:11;;;;;;;10.50;6.03;;;11.70;99.90;;;;;;5134260;27;20119;-86
2023/05/31 04:12:36;;;;;;;9.60;5.78;;;11.70;99.90;;;;;;5133203;27;20031;-86
2023/05/31 04:15:02;;;;;;;6.82;5.40;;;11.70;99.90;;;;;;5134676;27;20532;-85
2023/05/31 04:17:28;;;;;;;10.93;6.18;;;11.70;99.90;;;;;;5133698;27;20023;-86
2023/05/31 04:19:54;;;;;;;8.85;6.20;;;11.70;99.90;;;;;;5131947;27;20040;-86
2023/05/31 04:22:20;;;;;;;6.72;5.72;;;11.70;99.90;;;;;;5133725;28;20167;-86
2023/05/31 04:24:46;;;;;;;8.10;6.38;;;11.70;99.90;;;;;;5135323;28;20079;-86
2023/05/31 04:27:18;;;;;;;9.75;7.40;;;12.70;99.90;;;;;;5137123;28;20485;-87
2023/05/31 04:29:50;;;;;;;10.35;6.47;;;12.30;99.90;;;;;;5133073;28;20038;-87
2023/05/31 04:32:15;;;;;;;11.50;7.28;;;12.30;99.90;;;;;;5133379;28;20050;-87
2023/05/31 04:34:41;;;;;;;10.00;6.25;;;11.70;99.90;;;;;;5132292;28;20473;-86
2023/05/31 04:37:08;;;;;;;9.25;6.35;;;11.80;99.90;;;;;;5132969;28;20466;-86
2023/05/31 04:39:34;;;;;;;9.32;5.85;;;11.70;99.90;;;;;;5132908;28;20595;-86
2023/05/31 04:42:00;;;;;;;8.77;6.18;;;11.70;99.90;;;;;;5132043;28;20039;-86
2023/05/31 04:44:26;;;;;;;8.57;6.40;;;11.80;99.90;;;;;;5132998;27;20019;-86
2023/05/31 04:46:51;;;;;;;9.70;6.90;;;11.80;99.90;;;;;;5132444;28;20079;-87
2023/05/31 04:49:18;;;;;;;9.15;6.35;;;11.80;99.90;;;;;;5132734;28;20031;-87
2023/05/31 04:51:44;;;;;;;8.90;6.93;;;12.20;99.90;;;;;;5132848;28;20102;-86
2023/05/31 04:54:10;;;;;;;9.82;7.70;;;11.90;99.90;;;;;;5133077;28;20054;-87
2023/05/31 04:56:36;;;;;;;8.10;6.85;;;11.90;99.90;;;;;;5132077;28;20023;-87
2023/05/31 04:59:01;;;;;;;8.30;6.75;;;12.00;99.90;;;;;;5132237;28;20019;-85
2023/05/31 05:01:27;;;;;;;10.98;7.10;;;11.90;99.90;;;;;;5123203;28;20020;-86
2023/05/31 05:03:53;;;;;;;9.30;7.95;;;11.90;99.90;;;;;;5121227;28;20085;-86
2023/05/31 05:06:19;;;;;;;8.55;7.68;;;11.90;99.90;;;;;;5124713;28;20485;-86
2023/05/31 05:08:46;;;;;;;16.50;8.02;;;12.00;99.90;;;;;;5121084;28;20544;-86
2023/05/31 05:11:12;;;;;;;10.70;8.35;;;11.90;99.90;;;;;;5122180;28;20054;-87
2023/05/31 05:13:44;;;;;;;12.70;8.07;;;11.80;99.90;;;;;;5121661;28;20019;-86
2023/05/31 05:16:09;;;;;;;16.85;8.65;;;13.10;99.90;;;;;;5119897;28;20027;-86
2023/05/31 05:18:36;;;;;;;15.35;8.20;;;12.00;99.90;;;;;;5123229;28;20082;-87
2023/05/31 05:21:02;;;;;;;11.45;8.15;;;12.00;99.90;;;;;;5094348;27;1066579;-86
2023/05/31 05:23:39;;;;;;;14.75;8.50;;;12.10;99.90;;;;;;5131508;27;20070;-86
2023/05/31 05:26:05;;;;;;;12.80;8.60;;;13.80;99.90;;;;;;5132603;27;20024;-86
2023/05/31 05:28:30;;;;;;;14.70;9.35;;;12.10;99.90;;;;;;5132914;27;20054;-87
2023/05/31 05:30:56;;;;;;;13.93;8.70;;;12.20;99.90;;;;;;5130946;28;20055;-86
2023/05/31 05:33:22;;;;;;;14.93;9.05;;;12.30;99.90;;;;;;5132757;28;20433;-86
2023/05/31 05:35:47;;;;;;;14.60;9.00;;;12.30;99.90;;;;;;5132134;28;20026;-87
2023/05/31 05:38:13;;;;;;;10.52;8.52;;;12.30;99.90;;;;;;5131715;28;20015;-87
2023/05/31 05:40:38;;;;;;;13.20;9.88;;;12.20;99.90;;;;;;5132216;28;20020;-86
2023/05/31 05:43:05;;;;;;;13.85;8.98;;;12.40;99.90;;;;;;5131701;28;20023;-86
2023/05/31 05:45:31;;;;;;;13.40;9.07;;;12.40;99.90;;;;;;5131262;28;20023;-86
2023/05/31 05:47:56;;;;;;;20.80;9.85;;;12.50;99.90;;;;;;5133866;28;20031;-85
2023/05/31 05:50:22;;;;;;;15.70;9.32;;;12.50;99.90;;;;;;5136766;28;20019;-85
2023/05/31 05:52:48;;;;;;;12.80;9.50;;;12.40;99.90;;;;;;5131423;28;20128;-86
2023/05/31 05:55:13;;;;;;;13.15;9.50;;;12.50;99.90;;;;;;5132555;28;20023;-87
2023/05/31 05:57:39;;;;;;;14.20;8.70;;;12.60;99.90;;;;;;5134517;27;20106;-86
2023/05/31 06:00:10;;;;;;;15.50;9.93;;;12.60;99.90;;;;;;5136810;27;20031;-88
2023/05/31 06:02:35;;;;;;;15.57;9.60;;;12.60;99.90;;;;;;5137038;27;20110;-87
2023/05/31 06:05:01;;;;;;;16.55;9.57;;;12.60;99.90;;;;;;5136512;27;20114;-87
2023/05/31 06:07:26;;;;;;;14.48;9.68;;;12.70;99.90;;;;;;5137040;27;20023;-86
2023/05/31 06:09:53;;;;;;;13.02;8.93;;;12.70;99.90;;;;;;5136769;27;20386;-86
2023/05/31 06:12:18;;;;;;;17.75;8.85;;;12.70;99.90;;;;;;5136316;27;20023;-87
2023/05/31 06:14:44;;;;;;;17.35;10.00;;;12.80;99.90;;;;;;5138103;27;20075;-86
2023/05/31 06:17:09;;;;;;;15.52;10.63;;;12.80;99.90;;;;;;5136826;27;20107;-85
2023/05/31 06:19:35;;;;;;;15.90;10.32;;;12.90;99.90;;;;;;5134852;27;20047;-85
2023/05/31 06:22:00;;;;;;;18.98;9.63;;;12.90;99.90;;;;;;5135975;27;20047;-86
2023/05/31 06:24:26;;;;;;;11.40;9.63;;;13.00;99.90;;;;;;5136717;27;20019;-86
2023/05/31 06:26:51;;;;;;;15.25;9.60;;;13.40;99.90;;;;;;5135694;27;20536;-85
2023/05/31 06:29:17;;;;;;;15.73;9.55;;;13.30;99.90;;;;;;5136711;27;20142;-86
2023/05/31 06:31:43;;;;;;;16.42;9.70;;;13.00;99.90;;;;;;5136187;27;20463;-86
2023/05/31 06:34:09;;;;;;;13.20;9.48;;;13.10;99.90;;;;;;5135383;27;20034;-85
2023/05/31 06:36:35;;;;;;;15.10;10.25;;;13.10;99.90;;;;;;5135876;27;20015;-86
2023/05/31 06:39:00;;;;;;;15.48;10.50;;;13.20;99.90;;;;;;5135959;27;20023;-84
2023/05/31 06:41:27;;;;;;;16.65;10.40;;;13.90;99.90;;;;;;5134919;27;20375;-84
2023/05/31 06:43:53;;;;;;;16.05;10.32;;;13.20;99.90;;;;;;5134911;27;20027;-85
2023/05/31 06:46:18;;;;;;;17.67;10.27;;;13.30;99.90;;;;;;5132186;27;20418;-85
2023/05/31 06:48:44;;;;;;;17.20;10.43;;;13.40;99.90;;;;;;5133705;27;20023;-85
2023/05/31 06:51:10;;;;;;;11.52;10.18;;;13.40;99.90;;;;;;5135220;27;20157;-85
2023/05/31 06:53:35;;;;;;;16.42;10.45;;;13.50;99.90;;;;;;5131251;27;20098;-85
2023/05/31 06:56:01;;;;;;;16.75;9.45;;;13.50;99.90;;;;;;5122974;27;20102;-84
2023/05/31 06:58:31;;;;;;;17.70;10.55;;;13.60;99.90;;;;;;5125448;27;20031;-85
2023/05/31 07:00:57;;;;;;;18.38;10.70;;;13.70;99.90;;;;;;5124221;27;20024;-85
2023/05/31 07:03:22;;;;;;;14.70;9.77;;;13.70;99.90;;;;;;5123230;27;20099;-86
2023/05/31 07:05:48;;;;;;;15.63;10.55;;;13.40;99.90;;;;;;5132528;27;20059;-85
2023/05/31 07:08:15;;;;;;;15.80;9.80;;;13.90;99.90;;;;;;5131880;27;20094;-85
2023/05/31 07:10:41;;;;;;;16.45;9.77;;;13.90;99.90;;;;;;5131646;27;20084;-85
2023/05/31 07:13:07;;;;;;;15.52;9.30;;;13.60;99.90;;;;;;5134039;27;20023;-86
2023/05/31 07:15:33;;;;;;;14.43;9.05;;;14.10;99.90;;;;;;5133046;27;20074;-84
2023/05/31 07:17:59;;;;;;;16.90;10.27;;;14.10;99.90;;;;;;5134870;27;20019;-85
2023/05/31 07:20:24;;;;;;;14.65;9.63;;;14.10;99.90;;;;;;5133334;27;20503;-85
2023/05/31 07:22:51;;;;;;;13.98;9.93;;;14.20;99.90;;;;;;5133225;27;20027;-86
2023/05/31 07:25:16;;;;;;;14.77;9.30;;;14.30;99.90;;;;;;5133068;27;20463;-86
2023/05/31 07:27:42;;;;;;;14.73;9.32;;;14.30;99.90;;;;;;5134128;27;20034;-85
2023/05/31 07:30:08;;;;;;;15.95;9.07;;;14.40;99.90;;;;;;5134912;27;20027;-85
2023/05/31 07:32:34;;;;;;;14.90;10.48;;;14.40;99.90;;;;;;5134762;27;20066;-85
2023/05/31 07:35:00;;;;;;;13.98;9.75;;;14.50;99.90;;;;;;5134979;27;20467;-85
2023/05/31 07:37:25;;;;;;;13.15;8.88;;;14.60;99.90;;;;;;5134616;27;20161;-85
2023/05/31 07:39:51;;;;;;;14.32;9.75;;;14.60;99.90;;;;;;5131113;27;20034;-84
2023/05/31 07:42:16;;;;;;;15.75;10.25;;;14.60;99.90;;;;;;5119569;27;20040;-85
2023/05/31 07:44:42;;;;;;;17.45;10.02;;;14.70;99.90;;;;;;5131316;27;20044;-85
2023/05/31 07:47:08;;;;;;;14.95;8.95;;;14.80;99.90;;;;;;5135094;27;20188;-87
2023/05/31 07:49:33;;;;;;;16.70;9.63;;;14.80;99.90;;;;;;5134818;27;20481;-85
2023/05/31 07:51:59;;;;;;;17.08;8.77;;;14.90;99.90;;;;;;5134127;27;20463;-84
2023/05/31 07:54:25;;;;;;;14.73;8.90;;;15.10;99.90;;;;;;5134595;27;20049;-84
2023/05/31 07:56:50;;;;;;;11.50;8.93;;;14.90;99.90;;;;;;5134073;27;20076;-83
2023/05/31 07:59:16;;;;;;;22.33;9.50;;;15.00;99.90;;;;;;5133999;27;20040;-86
2023/05/31 08:01:42;;;;;;;15.25;9.00;;;15.10;99.90;;;;;;5135183;27;20023;-86
2023/05/31 08:04:09;;;;;;;17.02;9.85;;;15.10;99.90;;;;;;5134267;27;20356;-84
2023/05/31 08:06:36;;;;;;;15.85;9.25;;;14.60;99.90;;;;;;5133502;27;20038;-84
2023/05/31 08:09:04;;;;;;;13.82;8.93;;;15.20;99.90;;;;;;5134449;27;20027;-84
2023/05/31 08:11:30;;;;;;;14.68;8.73;;;15.30;99.90;;;;;;5133068;27;20027;-86
2023/05/31 08:13:55;;;;;;;15.32;8.80;;;15.30;99.90;;;;;;5133802;27;20534;-87
2023/05/31 08:16:21;;;;;;;16.85;8.63;;;15.40;99.90;;;;;;5133861;27;20019;-86
2023/05/31 08:18:47;;;;;;;15.13;9.50;;;15.40;99.90;;;;;;5133258;27;20079;-87
2023/05/31 08:21:12;;;;;;;15.98;9.25;;;15.40;99.90;;;;;;5132060;27;20051;-87
2023/05/31 08:23:38;;;;;;;13.93;8.93;;;15.50;99.90;;;;;;5133592;27;20501;-85
2023/05/31 08:26:03;;;;;;;14.73;8.38;;;15.60;99.90;;;;;;5133183;27;20126;-86
2023/05/31 08:28:32;;;;;;;13.70;8.52;;;15.60;99.90;;;;;;5133050;27;20031;-85
2023/05/31 08:30:57;;;;;;;12.50;8.60;;;15.70;99.90;;;;;;5132134;27;20019;-86
2023/05/31 08:33:28;;;;;;;16.60;8.60;;;15.70;99.90;;;;;;5131480;27;20083;-85
2023/05/31 08:35:59;;;;;;;17.67;9.35;;;15.80;99.90;;;;;;5132798;27;20030;-86
2023/05/31 08:38:28;;;;;;;;;;;15.80;99.90;;;;;;5132585;27;20027;-86
2023/05/31 08:40:57;;;;;;;12.93;8.55;;;15.90;99.90;;;;;;5131497;27;20379;-86
2023/05/31 08:43:26;;;;;;;12.77;9.15;;;15.90;99.90;;;;;;5133521;27;20152;-86
2023/05/31 08:45:51;;;;;;;12.70;8.60;;;16.00;99.90;;;;;;5133979;27;20610;-86
2023/05/31 08:48:42;;;;;;;12.93;8.68;;;16.10;99.90;;;;;;5132371;27;20057;-86
2023/05/31 08:51:08;;;;;;;14.23;7.50;;;16.10;99.90;;;;;;5131974;27;20026;-87
2023/05/31 08:53:34;;;;;;;14.18;7.78;;;16.20;99.90;;;;;;5135076;27;20102;-91
2023/05/31 08:56:03;;;;;;;15.02;8.02;;;16.20;99.90;;;;;;5132892;27;20148;-89
2023/05/31 08:58:29;;;;;;;15.30;7.43;;;16.30;99.90;;;;;;5131933;27;20153;-88
2023/05/31 09:00:55;;;;;;;10.35;7.18;;;16.30;99.90;;;;;;5131072;27;20179;-87
2023/05/31 09:03:22;;;;;;;13.02;7.40;;;16.30;99.90;;;;;;5131971;27;20541;-87
2023/05/31 09:05:48;;;;;;;12.38;8.50;;;16.60;99.90;;;;;;5133268;27;20463;-88
2023/05/31 09:08:14;;;;;;;16.00;7.88;;;16.70;99.90;;;;;;5132995;27;20493;-88
2023/05/31 09:10:40;;;;;;;14.63;8.63;;;16.60;99.90;;;;;;5133217;27;20019;-87
2023/05/31 09:13:06;;;;;;;12.20;7.53;;;16.60;99.90;;;;;;5132995;27;20024;-87
2023/05/31 09:15:35;;;;;;;12.57;8.38;;;17.20;99.90;;;;;;5132379;27;20023;-86
2023/05/31 09:18:15;;;;;;;14.85;7.60;;;16.70;99.90;;;;;;5132979;27;20446;-86
2023/05/31 09:20:41;;;;;;;14.60;7.30;;;17.30;99.90;;;;;;5133014;27;20051;-86
2023/05/31 09:23:08;;;;;;;11.50;7.68;;;16.70;99.90;;;;;;5132503;27;20031;-88
2023/05/31 09:25:48;;;;;;;15.35;7.63;;;16.80;99.90;;;;;;5133171;27;20378;-85
2023/05/31 09:28:14;;;;;;;17.23;8.03;;;16.90;99.90;;;;;;5133385;27;20023;-85
2023/05/31 09:30:40;;;;;;;10.93;7.22;;;17.10;99.90;;;;;;5131953;27;20046;-84
2023/05/31 09:33:07;;;;;;;10.32;6.68;;;17.00;99.90;;;;;;5132375;28;20027;-88
2023/05/31 09:35:33;;;;;;;12.00;7.32;;;17.00;99.90;;;;;;5133107;28;20414;-87
2023/05/31 09:38:04;;;;;;;13.57;6.60;;;17.10;99.90;;;;;;5132525;28;20528;-87
2023/05/31 09:40:33;;;;;;;12.40;7.45;;;18.00;99.90;;;;;;5133201;28;20023;-87
2023/05/31 09:43:00;;;;;;;11.85;6.93;;;17.40;99.90;;;;;;5131918;28;20425;-87
2023/05/31 09:45:25;;;;;;;17.17;8.13;;;16.80;99.90;;;;;;5132916;28;20072;-87
2023/05/31 09:47:52;;;;;;;10.48;6.50;;;17.30;99.90;;;;;;5133365;28;20483;-87
2023/05/31 09:50:22;;;;;;;15.32;6.82;;;18.30;99.90;;;;;;5132395;28;20081;-87
2023/05/31 09:52:51;;;;;;;13.27;6.70;;;17.40;99.90;;;;;;5131731;28;20072;-87
2023/05/31 09:55:17;;;;;;;9.70;7.00;;;17.50;99.90;;;;;;5130560;28;20083;-86
2023/05/31 09:57:45;;;;;;;13.30;7.45;;;17.50;99.90;;;;;;5130520;28;20027;-84
2023/05/31 10:00:26;;;;;;;16.15;6.93;;;17.50;99.90;;;;;;5126633;27;20521;-88
2023/05/31 10:03:04;;;;;;;12.52;6.65;;;17.60;99.90;;;;;;5125600;28;20117;-89
2023/05/31 10:05:30;;;;;;;15.93;6.25;;;18.60;99.90;;;;;;5128582;28;20011;-88
2023/05/31 10:07:56;;;;;;;10.75;6.38;;;18.50;99.90;;;;;;5130313;28;20359;-88
2023/05/31 10:10:22;;;;;;;11.85;5.80;;;17.90;99.90;;;;;;5131335;28;20514;-86
2023/05/31 10:12:54;;;;;;;14.98;6.38;;;18.50;99.90;;;;;;5130382;28;20114;-88
2023/05/31 10:15:26;;;;;;;13.23;7.10;;;17.80;99.90;;;;;;5130988;28;20508;-88
2023/05/31 10:18:16;;;;;;;9.85;6.00;;;17.90;99.90;;;;;;5131050;28;20035;-88
2023/05/31 10:20:48;;;;;;;14.75;6.15;;;18.10;99.90;;;;;;5130148;28;20074;-86
2023/05/31 10:23:21;;;;;;;11.65;6.53;;;18.70;99.90;;;;;;5130830;28;20039;-88
2023/05/31 10:25:50;;;;;;;12.23;6.53;;;18.20;99.90;;;;;;5125595;28;20019;-88
2023/05/31 10:28:19;;;;;;;11.18;6.18;;;18.80;99.90;;;;;;5131061;28;20043;-87
2023/05/31 10:30:54;;;;;;;12.35;6.15;;;18.30;99.90;;;;;;5130521;28;20015;-88
2023/05/31 10:33:20;;;;;;;9.98;6.05;;;18.30;99.90;;;;;;5127337;28;20027;-89
2023/05/31 10:35:56;;;;;;;10.80;5.90;;;19.50;99.90;;;;;;5131732;28;20380;-91
2023/05/31 10:38:31;;;;;;;9.88;5.43;;;19.70;99.90;;;;;;5131057;28;20368;-87
2023/05/31 10:41:06;;;;;;;11.57;6.20;;;18.60;99.90;;;;;;5133728;28;20061;-86
2023/05/31 10:43:52;;;;;;;9.80;5.45;;;18.30;99.90;;;;;;5130760;27;20387;-85
2023/05/31 10:46:24;;;;;;;11.70;5.82;;;18.40;99.90;;;;;;5133541;27;20023;-87
2023/05/31 10:48:58;;;;;;;14.38;6.07;;;18.40;99.90;;;;;;5129853;27;20027;-88
2023/05/31 10:51:47;;;;;;;11.90;6.35;;;18.50;99.90;;;;;;5134673;27;20027;-87
2023/05/31 10:54:31;;;;;;;8.75;6.00;;;18.70;99.90;;;;;;5131438;27;20027;-86
2023/05/31 10:56:58;;;;;;;13.48;6.57;;;18.40;99.90;;;;;;5130919;27;20051;-87
2023/05/31 10:59:25;;;;;;;18.65;7.03;;;18.70;99.90;;;;;;5134215;27;20114;-87
2023/05/31 11:01:51;;;;;;;11.07;5.95;;;18.60;99.90;;;;;;5132850;27;20035;-87
2023/05/31 11:04:24;;;;;;;9.68;5.30;;;19.70;99.90;;;;;;5134061;27;20027;-87
2023/05/31 11:06:55;;;;;;;20.48;6.88;;;18.90;99.90;;;;;;5133530;27;20023;-87
2023/05/31 11:09:21;;;;;;;13.85;5.95;;;19.00;99.90;;;;;;5133298;27;20054;-88
2023/05/31 11:11:49;;;;;;;15.38;7.07;;;19.00;99.90;;;;;;5132126;27;20497;-88
2023/05/31 11:14:25;;;;;;;12.32;7.82;;;19.10;99.90;;;;;;5132839;27;20027;-87
2023/05/31 11:16:52;;;;;;;11.98;7.10;;;18.80;99.90;;;;;;5133682;27;20023;-89
2023/05/31 11:19:20;;;;;;;11.48;7.18;;;19.10;99.90;;;;;;5133477;27;20031;-86
2023/05/31 11:21:51;;;;;;;16.27;6.72;;;19.10;99.90;;;;;;5132692;27;20041;-85
2023/05/31 11:24:30;;;;;;;16.15;8.25;;;19.10;99.90;;;;;;5127335;27;20459;-85
2023/05/31 11:27:00;;;;;;;9.75;8.32;;;19.20;99.90;;;;;;5131697;27;20031;-86
2023/05/31 11:29:48;;;;;;;11.07;8.10;;;19.20;99.90;;;;;;5132596;27;20027;-90
2023/05/31 11:32:17;;;;;;;14.98;8.63;;;19.30;99.90;;;;;;5133725;27;20355;-90
2023/05/31 11:35:01;;;;;;;15.50;8.07;;;19.30;99.90;;;;;;5145062;27;20041;-89
2023/05/31 11:37:31;;;;;;;11.10;7.78;;;19.80;99.90;;;;;;5133231;27;20023;-91
2023/05/31 11:40:05;;;;;;;15.25;9.10;;;19.30;99.90;;;;;;5132912;27;20023;-89
2023/05/31 11:42:32;;;;;;;10.70;8.13;;;19.30;99.90;;;;;;5110150;27;20047;-89
2023/05/31 11:45:09;;;;;;;13.70;7.57;;;19.20;99.90;;;;;;5132795;27;20095;-90
2023/05/31 11:47:43;;;;;;;17.98;8.23;;;19.30;99.90;;;;;;5129981;27;20019;-88
2023/05/31 11:50:13;;;;;;;12.70;7.43;;;19.40;99.90;;;;;;5132895;27;20106;-88
2023/05/31 11:52:39;;;;;;;12.70;7.30;;;19.40;99.90;;;;;;5130335;27;20031;-87
2023/05/31 11:55:07;;;;;;;9.15;7.03;;;19.50;99.90;;;;;;5130918;27;20034;-89
2023/05/31 11:57:46;;;;;;;10.50;7.70;;;19.50;99.90;;;;;;5130168;27;20373;-88
2023/05/31 12:00:16;;;;;;;10.70;7.32;;;19.60;99.90;;;;;;5131359;27;20515;-90
2023/05/31 12:02:44;;;;;;;13.50;7.90;;;19.60;99.90;;;;;;5130697;27;20126;-88
2023/05/31 12:05:15;;;;;;;15.38;8.27;;;19.80;99.90;;;;;;5131787;27;20031;-89
2023/05/31 12:07:41;;;;;;;15.90;9.48;;;19.90;99.90;;;;;;5135405;27;20024;-89
2023/05/31 12:10:07;;;;;;;15.18;8.68;;;19.80;99.90;;;;;;5133115;27;20418;-89
2023/05/31 12:12:35;;;;;;;14.90;9.93;;;19.80;99.90;;;;;;5133267;27;20531;-86
2023/05/31 12:15:03;;;;;;;15.85;10.05;;;20.50;99.90;;;;;;5133072;27;20609;-86
2023/05/31 12:17:32;;;;;;;19.20;10.07;;;19.80;99.90;;;;;;5133928;27;20031;-84
2023/05/31 12:19:58;;;;;;;16.63;10.00;;;19.80;99.90;;;;;;5132482;27;20050;-85
2023/05/31 12:22:23;;;;;;;16.23;9.98;;;19.80;99.90;;;;;;5133021;27;20035;-84
2023/05/31 12:24:50;;;;;;;16.83;8.95;;;19.80;99.90;;;;;;5132127;27;20486;-85
2023/05/31 12:27:17;;;;;;;13.50;8.35;;;20.60;99.90;;;;;;5135682;27;20042;-87
2023/05/31 12:29:42;;;;;;;14.23;9.23;;;19.90;99.90;;;;;;5135080;27;20023;-89
2023/05/31 12:32:09;;;;;;;11.93;8.90;;;19.90;99.90;;;;;;5132344;27;20015;-88
2023/05/31 12:34:37;;;;;;;17.90;9.05;;;20.00;99.90;;;;;;5137039;27;20045;-90
2023/05/31 12:37:06;;;;;;;15.88;9.80;;;20.10;99.90;;;;;;5134748;27;20462;-90
2023/05/31 12:39:33;;;;;;;19.13;10.30;;;20.10;99.90;;;;;;5134864;27;20102;-90
2023/05/31 12:42:00;;;;;;;21.48;10.70;;;20.20;99.90;;;;;;5135054;27;20023;-90